Latest Weather Observations for Esperance

IDW60801

Issued at 5:35 am WST Friday 22 August 2014 (issued every 30 minutes, with the page automatically refreshed every 10 minutes)

About weather observations | Map of weather stations | Latest weather observations for WA | Other Formats
Station Details ID: 009789 Name: ESPERANCE Lat: -33.83 Lon: 121.89 Height: 25.0 m
Data from the previous 72 hours. | See also: Recent months at Esperance
Date/Time
WST
Temp
°C
App
Temp
°C
Dew
Point
Rel
Hum
%
Delta-T
°C
Wind Press
QNH
hPa
Press
MSL
hPa
Rain
since 9 am
mm
Dir
 
Spd
km/h
Gust
km/h
Spd
kts
Gust
kts
22/05:30am 12.7 9.6 10.4 86 1.2 WNW 17 24 9 13 1015.6 1015.5 3.0
22/05:00am 13.1 9.7 10.6 85 1.3 WNW 19 26 10 14 1015.0 1015.0 3.0
22/04:30am 13.1 9.8 10.8 86 1.2 NW 19 24 10 13 1014.5 1014.5 3.0
22/04:00am 12.9 10.4 11.0 88 1.0 NW 15 22 8 12 1014.0 1014.0 3.0
22/03:30am 12.8 10.4 11.5 92 0.7 NW 15 19 8 10 1013.9 1013.9 3.0
22/03:00am 13.3 10.6 11.6 89 0.9 WNW 17 24 9 13 1013.7 1013.7 3.0
22/02:30am 13.0 10.9 12.4 96 0.3 NW 15 19 8 10 1013.7 1013.7 3.0
22/02:00am 13.0 11.7 12.4 96 0.3 NW 11 15 6 8 1013.7 1013.7 3.0
22/01:30am 13.4 11.8 12.7 95 0.4 NW 13 17 7 9 1013.4 1013.4 3.0
22/01:00am 13.8 12.6 12.9 94 0.5 NW 11 15 6 8 1013.5 1013.5 3.0
22/12:57am 13.9 12.8 13.0 94 0.5 NW 11 15 6 8 1013.5 1013.5 3.0
22/12:30am 14.3 12.8 13.2 93 0.6 NW 13 17 7 9 1013.6 1013.6 3.0
22/12:00am 14.1 13.1 13.4 96 0.4 NW 11 17 6 9 1013.6 1013.6 3.0
 
Date/Time
WST
Temp
°C
App
Temp
°C
Dew
Point
Rel
Hum
%
Delta-T
°C
Wind Press
QNH
hPa
Press
MSL
hPa
Rain
since 9 am
mm
Dir
 
Spd
km/h
Gust
km/h
Spd
kts
Gust
kts
21/11:30pm 14.2 13.6 13.5 96 0.4 WNW 9 13 5 7 1013.5 1013.5 3.0
21/11:00pm 14.4 12.5 13.1 92 0.7 WNW 15 20 8 11 1013.5 1013.5 3.0
21/10:42pm 14.4 12.0 12.8 90 0.9 WNW 17 24 9 13 1013.3 1013.3 3.0
21/10:30pm 14.6 11.6 12.4 87 1.2 WNW 20 24 11 13 1013.3 1013.3 3.0
21/10:00pm 15.3 13.3 12.8 85 1.4 NNW 15 20 8 11 1013.0 1013.0 3.0
21/09:30pm 15.4 14.3 13.1 86 1.3 NNW 11 13 6 7 1012.8 1012.8 3.0
21/09:00pm 15.8 14.3 13.1 84 1.5 NW 13 17 7 9 1012.8 1012.8 3.0
21/08:30pm 15.4 15.0 13.1 86 1.3 NNW 7 11 4 6 1013.0 1013.0 3.0
21/08:00pm 15.5 15.2 13.2 86 1.3 N 7 11 4 6 1012.9 1012.9 3.0
21/07:30pm 15.6 14.6 13.3 86 1.3 NW 11 17 6 9 1012.7 1012.7 3.0
21/07:00pm 15.8 16.1 14.4 91 0.8 NNW 6 11 3 6 1012.3 1012.3 2.8
21/06:30pm 15.2 15.2 14.3 94 0.5 NE 7 9 4 5 1012.1 1012.1 2.8
21/06:00pm 15.3 15.5 14.8 97 0.3 NNE 7 11 4 6 1011.8 1011.8 2.8
21/05:30pm 15.7 16.4 14.5 93 0.7 E 4 7 2 4 1011.5 1011.5 2.8
21/05:00pm 16.0 16.3 14.6 91 0.8 ENE 6 9 3 5 1011.4 1011.4 2.8
21/04:30pm 16.1 16.0 14.9 93 0.7 SE 9 11 5 6 1011.0 1011.0 2.8
21/04:00pm 16.0 15.9 15.0 94 0.6 NE 9 13 5 7 1011.0 1011.0 2.8
21/03:34pm 15.8 15.6 14.6 93 0.7 S 9 13 5 7 1010.9 1010.9 2.8
21/03:30pm 15.9 15.6 14.5 91 0.8 S 9 13 5 7 1010.8 1010.8 2.8
21/03:09pm 16.1 15.8 14.3 89 1.0 SW 9 13 5 7 1010.9 1010.9 2.0
21/03:00pm 16.2 15.6 14.6 90 0.9 SSW 11 13 6 7 1010.6 1010.6 1.8
21/02:30pm 16.5 16.7 14.2 86 1.3 NW 6 7 3 4 1010.5 1010.5 1.2
21/02:00pm 16.5 15.3 13.9 84 1.5 NW 13 17 7 9 1010.2 1010.2 1.0
21/01:43pm 16.3 15.3 13.3 82 1.7 WNW 11 17 6 9 1010.0 1010.0 1.0
21/01:30pm 16.5 14.1 12.5 77 2.2 WNW 17 28 9 15 1010.1 1010.1 0.6
21/01:00pm 20.7 17.2 8.8 46 6.3 WNW 17 22 9 12 1010.2 1010.2 0.0
21/12:30pm 21.7 17.0 7.9 41 7.2 WNW 22 28 12 15 1010.4 1010.4 0.0
21/12:00pm 21.1 16.5 8.3 43 6.7 NW 22 32 12 17 1010.8 1010.8 0.0
21/11:30am 21.5 14.7 7.1 39 7.4 NNW 32 43 17 23 1010.8 1010.8 0.0
21/11:00am 21.4 16.4 8.0 42 7.0 NNW 24 35 13 19 1010.8 1010.8 0.0
21/10:30am 21.1 14.8 7.6 41 7.0 NNW 30 44 16 24 1010.9 1010.9 0.0
21/10:00am 20.6 15.9 7.9 44 6.6 N 22 39 12 21 1011.3 1011.3 0.0
21/09:30am 19.4 14.5 8.4 49 5.7 N 24 35 13 19 1011.5 1011.5 0.0
21/09:00am 17.7 13.8 9.5 58 4.3 N 20 26 11 14 1011.3 1011.3 0.0
21/08:30am 15.9 12.2 9.3 65 3.4 N 19 22 10 12 1011.8 1011.8 0.0
21/08:00am 14.6 10.5 8.7 67 3.0 N 20 26 11 14 1012.0 1012.0 0.0
21/07:30am 12.9 8.9 8.3 73 2.3 N 19 24 10 13 1012.2 1012.2 0.0
21/07:00am 11.6 7.9 7.9 78 1.8 N 17 22 9 12 1012.2 1012.2 0.0
21/06:30am 10.7 6.6 8.0 83 1.3 N 19 22 10 12 1012.2 1012.2 0.0
21/06:00am 10.8 7.9 8.1 83 1.3 NNE 13 19 7 10 1012.2 1012.2 0.0
21/05:30am 11.2 8.3 8.1 81 1.5 N 13 20 7 11 1012.3 1012.3 0.0
21/05:00am 11.1 8.7 8.5 84 1.3 N 11 17 6 9 1012.3 1012.3 0.0
21/04:30am 11.4 9.0 8.6 83 1.4 N 11 15 6 8 1012.6 1012.6 0.0
21/04:00am 11.5 8.8 8.9 84 1.3 N 13 17 7 9 1012.6 1012.6 0.0
21/03:30am 12.2 9.4 8.6 78 1.8 N 13 19 7 10 1012.8 1012.8 0.0
21/03:00am 12.1 9.8 8.9 81 1.6 N 11 15 6 8 1012.7 1012.7 0.0
21/02:30am 12.4 9.3 9.0 80 1.7 NNE 15 20 8 11 1012.9 1012.9 0.0
21/02:00am 12.7 10.0 9.1 79 1.8 N 13 17 7 9 1013.2 1013.2 0.0
21/01:30am 13.0 10.0 9.3 78 1.9 N 15 17 8 9 1013.5 1013.5 0.0
21/01:00am 13.7 11.1 9.4 75 2.2 NNE 13 17 7 9 1013.8 1013.8 0.0
21/12:30am 13.7 12.5 10.2 79 1.8 N 7 9 4 5 1014.3 1014.3 0.0
21/12:00am 14.0 11.9 9.9 76 2.1 NNE 11 13 6 7 1014.1 1014.1 0.0
 
Date/Time
WST
Temp
°C
App
Temp
°C
Dew
Point
Rel
Hum
%
Delta-T
°C
Wind Press
QNH
hPa
Press
MSL
hPa
Rain
since 9 am
mm
Dir
 
Spd
km/h
Gust
km/h
Spd
kts
Gust
kts
20/11:30pm 14.2 12.6 10.2 77 2.1 NNE 9 13 5 7 1014.5 1014.5 0.0
20/11:00pm 15.3 13.6 9.7 69 2.9 NNW 9 11 5 6 1014.8 1014.8 0.0
20/10:30pm 14.8 13.6 10.4 75 2.3 NNW 7 9 4 5 1015.1 1015.1 0.0
20/10:00pm 14.8 12.8 10.2 74 2.4 N 11 15 6 8 1015.3 1015.3 0.0
20/09:30pm 15.6 14.5 10.5 71 2.7 N 7 9 4 5 1015.3 1015.3 0.0
20/09:00pm 16.8 15.4 9.5 62 3.8 NNW 7 7 4 4 1015.7 1015.6 0.0
20/08:30pm 16.4 15.1 10.1 66 3.3 NNW 7 11 4 6 1015.9 1015.8 0.0
20/08:00pm 16.9 15.1 9.4 61 3.9 N 9 13 5 7 1015.8 1015.7 0.0
20/07:30pm 16.4 15.0 10.8 69 3.0 NW 9 13 5 7 1015.7 1015.6 0.0
20/07:00pm 16.2 14.9 11.4 73 2.6 N 9 13 5 7 1015.3 1015.3 0.0
20/06:30pm 17.3 16.9 11.0 66 3.4 NE 4 7 2 4 1015.1 1015.1 0.0
20/06:00pm 17.7 16.6 10.6 63 3.8 N 7 11 4 6 1015.1 1015.1 0.0
20/05:30pm 17.9 16.9 11.1 64 3.7 NNE 7 9 4 5 1014.8 1014.8 0.0
20/05:00pm 18.3 16.5 10.7 61 4.1 NE 11 13 6 7 1014.5 1014.5 0.0
20/04:30pm 19.5 17.8 9.7 53 5.2 N 9 13 5 7 1014.4 1014.4 0.0
20/04:00pm 19.9 17.6 8.9 49 5.8 N 11 17 6 9 1014.3 1014.3 0.0
20/03:30pm 20.0 17.1 8.0 46 6.2 N 13 17 7 9 1014.3 1014.3 0.0
20/03:00pm 20.4 18.4 10.0 51 5.6 N 11 17 6 9 1014.3 1014.3 0.0
20/02:30pm 19.7 16.2 8.6 48 5.8 N 17 24 9 13 1014.4 1014.4 0.0
20/02:00pm 21.7 19.4 10.3 48 6.2 NNW 13 19 7 10 1014.4 1014.4 0.0
20/01:30pm 20.3 17.6 10.5 53 5.3 NNW 15 22 8 12 1014.5 1014.5 0.0
20/01:00pm 19.8 16.6 9.9 53 5.3 NNW 17 24 9 13 1014.8 1014.8 0.0
20/12:30pm 19.2 17.0 10.7 58 4.6 NNW 13 19 7 10 1015.1 1015.1 0.0
20/12:00pm 20.2 17.4 11.3 56 4.9 N 17 22 9 12 1015.7 1015.6 0.0
20/11:30am 19.8 17.9 11.7 59 4.5 NNW 13 20 7 11 1016.3 1016.3 0.0
20/11:00am 19.1 18.0 11.9 63 4.0 NNW 9 13 5 7 1016.7 1016.7 0.0
20/10:30am 17.7 16.5 11.5 67 3.4 NNW 9 15 5 8 1017.0 1017.0 0.0
20/10:00am 16.9 15.2 11.3 69 3.0 N 11 15 6 8 1017.3 1017.3 0.0
20/09:30am 15.2 13.4 10.9 75 2.3 NNW 11 13 6 7 1017.4 1017.4 0.0
20/09:00am 13.4 11.7 9.9 79 1.8 NNW 9 13 5 7 1017.5 1017.5 1.8
20/08:30am 11.7 9.0 9.1 84 1.3 N 13 17 7 9 1017.7 - 1.8
20/08:00am 10.4 7.7 8.8 90 0.8 N 13 17 7 9 1017.6 1017.6 1.8
20/07:30am 9.0 6.4 7.7 91 0.6 N 11 15 6 8 1017.3 - 1.8
20/07:00am 8.1 4.2 7.2 94 0.4 N 17 20 9 11 1017.1 1017.1 1.8
20/06:30am 7.4 4.2 7.0 97 0.2 N 13 15 7 8 1016.9 - 1.8
20/06:00am 7.6 5.2 7.2 97 0.2 N 9 15 5 8 1017.0 1017.0 1.8
20/05:30am 7.6 5.6 7.2 97 0.2 N 7 9 4 5 1017.0 - 1.8
20/05:00am 8.1 5.9 7.7 97 0.2 NNE 9 11 5 6 1016.8 1016.8 1.8
20/04:30am 8.3 5.7 7.9 97 0.2 NNE 11 15 6 8 1017.1 - 1.8
20/04:00am 8.4 5.4 7.8 96 0.3 NNE 13 15 7 8 1017.2 1017.2 1.8
20/03:30am 8.5 6.3 7.9 96 0.3 NNE 9 13 5 7 1017.3 - 1.8
20/03:00am 8.3 6.1 7.9 97 0.2 NE 9 13 5 7 1017.4 1017.4 1.8
20/02:30am 8.8 6.6 8.0 95 0.4 ENE 9 13 5 7 1017.3 - 1.8
20/02:00am 9.1 7.0 8.1 93 0.5 E 9 15 5 8 1017.4 1017.4 1.8
20/01:30am 9.5 6.7 8.7 95 0.4 ESE 13 20 7 11 1017.1 - 1.8
20/01:00am 10.8 8.1 9.0 89 0.9 NE 13 15 7 8 1016.9 1016.9 1.8
20/12:30am 12.3 8.5 9.1 81 1.6 NNW 19 26 10 14 1016.7 - 1.8
20/12:00am 11.2 8.6 9.2 87 1.0 N 13 17 7 9 1017.3 1017.3 1.8
 
Date/Time
WST
Temp
°C
App
Temp
°C
Dew
Point
Rel
Hum
%
Delta-T
°C
Wind Press
QNH
hPa
Press
MSL
hPa
Rain
since 9 am
mm
Dir
 
Spd
km/h
Gust
km/h
Spd
kts
Gust
kts
19/11:30pm 10.6 8.0 9.2 91 0.7 N 13 15 7 8 1017.3 - 1.8
19/11:00pm 10.9 7.5 9.3 90 0.8 N 17 20 9 11 1017.2 1017.2 1.8
19/10:30pm 10.9 8.3 9.3 90 0.8 N 13 17 7 9 1017.4 - 1.8
19/10:00pm 11.7 8.9 9.9 89 0.9 N 15 20 8 11 1017.5 1017.5 1.8
19/09:30pm 11.5 9.1 10.1 91 0.7 N 13 15 7 8 1017.7 - 1.8
19/09:00pm 11.8 9.4 10.2 90 0.8 N 13 17 7 9 1017.9 1017.9 1.8
19/08:30pm 12.5 10.7 11.0 90 0.8 N 11 15 6 8 1017.9 - 1.8
19/08:00pm 13.0 12.2 11.7 92 0.7 N 7 11 4 6 1017.9 1017.9 1.8
19/07:30pm 13.7 12.5 11.6 87 1.1 NE 9 11 5 6 1017.7 - 1.8
19/07:00pm 13.8 13.1 12.1 89 0.9 E 7 11 4 6 1017.8 1017.8 1.8
19/06:30pm 14.0 13.0 12.3 89 0.9 E 9 13 5 7 1017.8 - 1.8
19/06:00pm 13.6 11.9 12.3 92 0.7 ESE 13 15 7 8 1017.4 1017.4 1.8
19/05:30pm 14.0 13.4 11.6 85 1.3 E 6 7 3 4 1017.0 - 1.8
19/05:00pm 14.3 12.6 11.3 82 1.6 NNE 11 17 6 9 1016.7 1016.7 1.8
19/04:30pm 15.0 13.5 10.4 74 2.4 ENE 9 15 5 8 1016.5 - 1.8
19/04:00pm 16.6 14.6 12.6 77 2.2 E 15 20 8 11 1016.2 1016.2 1.8
19/03:30pm 18.8 16.0 11.5 62 4.0 NE 17 24 9 13 1015.7 - 1.8
19/03:00pm 18.7 16.3 12.6 67 3.4 NNE 17 28 9 15 1015.7 1015.6 1.6
19/02:30pm 17.1 15.3 12.0 72 2.8 SE 13 17 7 9 1015.5 - 1.6
19/02:00pm 17.1 16.7 13.0 77 2.3 ESE 7 9 4 5 1015.5 1015.4 1.6
19/01:30pm 16.5 15.1 13.3 81 1.8 SE 13 19 7 10 1015.5 - 1.6
19/01:00pm 16.2 15.1 13.0 81 1.8 SE 11 15 6 8 1015.7 1015.6 1.6
19/12:30pm 15.9 14.1 13.4 85 1.4 ESE 15 20 8 11 1016.2 - 1.6
19/12:00pm 16.0 15.1 12.7 81 1.8 N 9 11 5 6 1016.4 1016.4 1.6
19/11:30am 15.1 15.0 13.3 89 1.0 NNW 6 9 3 5 1016.8 - 1.6
19/11:00am 13.6 13.3 12.7 94 0.5 E 6 7 3 4 1017.4 1017.4 1.6
19/10:30am 12.8 11.8 12.2 96 0.3 N 9 13 5 7 1017.7 - 1.4
19/10:00am 12.5 12.2 11.6 94 0.5 NNE 4 11 2 6 1017.8 1017.8 1.0
19/09:30am 12.1 10.5 11.5 96 0.3 ESE 11 13 6 7 1017.8 - 0.8
19/09:00am 12.4 10.3 11.1 92 0.7 NNW 13 19 7 10 1017.7 1017.7 4.4
19/08:30am 11.9 9.1 11.3 96 0.3 N 17 26 9 14 1018.0 - 2.8
19/08:00am 12.0 10.6 11.0 94 0.5 NW 9 20 5 11 1017.7 1017.7 2.4
19/07:30am 11.6 9.2 10.2 91 0.7 N 13 19 7 10 1017.5 - 0.8
19/07:16am 11.7 9.6 9.7 87 1.0 N 11 15 6 8 1017.2 - 0.2
19/07:00am 11.7 9.5 9.3 85 1.2 N 11 15 6 8 1017.0 1017.0 0.0
19/06:30am 11.7 9.4 8.9 83 1.4 N 11 15 6 8 1016.9 - 0.0
19/06:00am 11.9 9.6 8.9 82 1.5 N 11 15 6 8 1016.6 1016.6 0.0

Other Formats:

Comma delimited format used in spreadsheet applications
http://www.bom.gov.au/fwo/IDW60801/IDW60801.94638.axf

JavaScript Object Notation format (JSON) in row-major order
http://www.bom.gov.au/fwo/IDW60801/IDW60801.94638.json